Douglas Observed Data For Previous 48 Hours

Caption
Day and Hour Reservoir Elevation (behind dam)* Tailwater Elevation (below dam)* Average Hourly Discharge*
10/16/2018 2 AM EDT 978.10 875.21 13,628
10/16/2018 3 AM EDT 978.11 873.73 9,282
10/16/2018 4 AM EDT 978.10 872.10 4,761
10/16/2018 5 AM EDT 978.14 870.02 64
10/16/2018 6 AM EDT 978.17 869.32 0
10/16/2018 7 AM EDT 978.20 869.00 0
10/16/2018 8 AM EDT 978.21 871.40 4,667
10/16/2018 9 AM EDT 978.21 873.34 8,883
10/16/2018 10 AM EDT 978.19 875.15 13,591
10/16/2018 11 AM EDT 978.14 876.44 18,200
10/16/2018 12 PM EDT 978.09 876.47 18,159
10/16/2018 1 PM EDT 978.06 876.43 18,136
10/16/2018 2 PM EDT 978.03 876.40 18,094
10/16/2018 3 PM EDT 977.97 876.49 18,095
10/16/2018 4 PM EDT 977.93 876.47 18,090
10/16/2018 5 PM EDT 977.89 876.42 18,133
10/16/2018 6 PM EDT 977.86 876.45 18,138
10/16/2018 7 PM EDT 977.83 876.41 18,145
10/16/2018 8 PM EDT 977.79 876.44 18,082
10/16/2018 9 PM EDT 977.75 876.40 18,074
10/16/2018 10 PM EDT 977.72 876.41 18,066
10/16/2018 11 PM EDT 977.70 875.13 13,618
10/17/2018 12 AM EDT 977.69 873.65 9,284
10/17/2018 1 AM EDT 977.70 872.03 4,781
10/17/2018 2 AM EDT 977.70 871.81 4,706
10/17/2018 3 AM EDT 977.71 871.76 4,715
10/17/2018 4 AM EDT 977.73 871.73 4,716
10/17/2018 5 AM EDT 977.74 871.79 4,722
10/17/2018 6 AM EDT 977.75 871.77 4,702
10/17/2018 7 AM EDT 977.76 871.74 4,733
10/17/2018 8 AM EDT 977.77 871.72 4,719
10/17/2018 9 AM EDT 977.77 871.94 4,714
10/17/2018 10 AM EDT 977.76 873.45 8,910
10/17/2018 11 AM EDT 977.74 874.96 13,301
10/17/2018 12 PM EDT 977.73 875.06 13,582
10/17/2018 1 PM EDT 977.71 875.05 13,599
10/17/2018 2 PM EDT 977.66 875.07 13,571
10/17/2018 3 PM EDT 977.64 875.07 13,570
10/17/2018 4 PM EDT 977.62 875.07 13,570
10/17/2018 5 PM EDT 977.60 875.10 13,534
10/17/2018 6 PM EDT 977.56 875.03 13,572
10/17/2018 7 PM EDT 977.51 875.59 13,693
10/17/2018 8 PM EDT 977.49 876.39 18,120
10/17/2018 9 PM EDT 977.45 876.38 18,148
10/17/2018 10 PM EDT 977.42 876.52 18,170
10/17/2018 11 PM EDT 977.37 876.43 18,158
10/18/2018 12 AM EDT 977.36 875.17 13,621
10/18/2018 1 AM EDT 977.35 873.65 9,227
10/18/2018 2 AM EDT 977.36 871.99 4,770
10/18/2018 3 AM EDT 977.39 870.00 73
10/18/2018 4 AM EDT 977.43 869.30 0
10/18/2018 5 AM EDT 977.43 869.41 110
10/18/2018 6 AM EDT 977.44 872.17 5,019
10/18/2018 7 AM EDT 977.45 873.36 9,101
10/18/2018 8 AM EDT 977.45 875.09 13,283
10/18/2018 9 AM EDT 977.42 876.35 18,013
10/18/2018 10 AM EDT 977.38 876.45 18,151
10/18/2018 11 AM EDT 977.32 876.41 18,175
10/18/2018 12 PM EDT 977.29 875.12 13,632
10/18/2018 1 PM EDT 977.28 873.68 9,347
10/18/2018 2 PM EDT 977.26 873.61 9,214
10/18/2018 3 PM EDT 977.25 873.59 9,221
10/18/2018 4 PM EDT 977.24 873.60 9,192

Elevations are in feet above sea level. Discharges are in cubic feet per second and are reported at the end of the hour.